Portada
METAR-TAF:

METAR-TAF

Aeroports :

Suva, Fiji

latitud: 18-03S, longitud: 178-34E, altitud: 5 m

Observació

L'informe es va fer fa 1 hora i 31 minuts, a les 11:00 UTC
Vent calma
Temperatura 24°C
Humitat 89%
Pressió 1017 hPa
Visibilitat 10 km o més
Núvols disperses a una alçada de 2000 ft
Núvols disperses a una alçada de 4800 ft

METAR: NFNA 251100Z 00000KT 9999 SCT020 SCT048 24/22 Q1017

Hora: 00:31 (12:31 UTC)

Pronòstic

L'informe es va fer fa 1 hora i 28 minuts, a les 11:03 UTC
Pronòstic vàlid del 25 a les 12 UTC al 26 a les 12 UTC
Vent 6 kt del Est/Sud-Est
Visibilitat 10 km o més
Núvols disperses a una alçada de 2000 ft
Cel ennuvolat a una alçada de 4500 ft

TAF: NFNA 251103Z 2512/2612 12006KT 9999 SCT020 BKN045

Observacions i pronòstics meteorològics de més de 4000 aeroports (METAR i TAF).

Les estacions disponibles són els punts grocs i vermells al mapa.

Posi el ratolí al punt desitjat per veure el nom de l'estació.

Feu clic per veure les observacions i els pronòstics meteorològics.

Per canviar el mapa: feu clic els botons verds amb una creu de color negre per apropar; al botó verd amb un guió per allunyar la imatge; o en les fletxes verdes per a mapes adjacents.


METAR-TAF: